sensor_id;sensor_type;location;lat;lon;timestamp;temperature;humidity
17795;DHT22;9021;50.882;4.326;2023-04-24T00:00:11;10.80;99.90
17795;DHT22;9021;50.882;4.326;2023-04-24T00:02:41;10.80;99.90
17795;DHT22;9021;50.882;4.326;2023-04-24T00:07:37;10.70;99.90
17795;DHT22;9021;50.882;4.326;2023-04-24T00:10:02;10.50;99.90
17795;DHT22;9021;50.882;4.326;2023-04-24T00:12:29;11.10;99.90
17795;DHT22;9021;50.882;4.326;2023-04-24T00:14:55;10.40;99.90
17795;DHT22;9021;50.882;4.326;2023-04-24T00:19:49;11.10;99.90
17795;DHT22;9021;50.882;4.326;2023-04-24T00:22:27;11.60;99.90
17795;DHT22;9021;50.882;4.326;2023-04-24T00:24:53;11.30;99.90
17795;DHT22;9021;50.882;4.326;2023-04-24T00:27:19;11.30;99.90
17795;DHT22;9021;50.882;4.326;2023-04-24T00:29:44;10.90;99.90
17795;DHT22;9021;50.882;4.326;2023-04-24T00:32:10;11.10;99.90
17795;DHT22;9021;50.882;4.326;2023-04-24T00:34:36;10.50;99.90
17795;DHT22;9021;50.882;4.326;2023-04-24T00:37:02;11.30;99.90
17795;DHT22;9021;50.882;4.326;2023-04-24T00:41:53;11.00;99.90
17795;DHT22;9021;50.882;4.326;2023-04-24T00:46:47;10.80;99.90
17795;DHT22;9021;50.882;4.326;2023-04-24T00:49:18;11.20;99.90
17795;DHT22;9021;50.882;4.326;2023-04-24T00:51:44;10.50;99.90
17795;DHT22;9021;50.882;4.326;2023-04-24T00:54:12;10.70;99.90
17795;DHT22;9021;50.882;4.326;2023-04-24T00:56:38;11.10;99.90
17795;DHT22;9021;50.882;4.326;2023-04-24T01:03:56;10.70;99.90
17795;DHT22;9021;50.882;4.326;2023-04-24T01:06:23;10.50;99.90
17795;DHT22;9021;50.882;4.326;2023-04-24T01:08:57;10.40;99.90
17795;DHT22;9021;50.882;4.326;2023-04-24T01:11:24;10.40;99.90
17795;DHT22;9021;50.882;4.326;2023-04-24T01:13:51;11.00;99.90
17795;DHT22;9021;50.882;4.326;2023-04-24T01:18:45;10.30;99.90
17795;DHT22;9021;50.882;4.326;2023-04-24T01:21:11;10.50;99.90
17795;DHT22;9021;50.882;4.326;2023-04-24T01:23:38;10.40;99.90
17795;DHT22;9021;50.882;4.326;2023-04-24T01:28:30;10.50;99.90
17795;DHT22;9021;50.882;4.326;2023-04-24T01:30:56;10.10;99.90
17795;DHT22;9021;50.882;4.326;2023-04-24T01:33:22;10.00;99.90
17795;DHT22;9021;50.882;4.326;2023-04-24T01:35:48;10.30;99.90
17795;DHT22;9021;50.882;4.326;2023-04-24T01:38:14;9.90;99.90
17795;DHT22;9021;50.882;4.326;2023-04-24T01:40:40;10.10;99.90
17795;DHT22;9021;50.882;4.326;2023-04-24T01:43:06;10.40;99.90
17795;DHT22;9021;50.882;4.326;2023-04-24T01:45:32;10.10;99.90
17795;DHT22;9021;50.882;4.326;2023-04-24T01:47:58;10.50;99.90
17795;DHT22;9021;50.882;4.326;2023-04-24T01:52:49;10.20;99.90
17795;DHT22;9021;50.882;4.326;2023-04-24T01:55:16;10.90;99.90
17795;DHT22;9021;50.882;4.326;2023-04-24T01:57:42;10.40;99.90
17795;DHT22;9021;50.882;4.326;2023-04-24T02:00:08;10.50;99.90
17795;DHT22;9021;50.882;4.326;2023-04-24T02:02:34;10.70;99.90
17795;DHT22;9021;50.882;4.326;2023-04-24T02:05:00;10.80;99.90
17795;DHT22;9021;50.882;4.326;2023-04-24T02:09:52;10.50;99.90
17795;DHT22;9021;50.882;4.326;2023-04-24T02:14:44;10.40;99.90
17795;DHT22;9021;50.882;4.326;2023-04-24T02:17:10;10.60;99.90
17795;DHT22;9021;50.882;4.326;2023-04-24T02:22:03;10.60;99.90
17795;DHT22;9021;50.882;4.326;2023-04-24T02:24:29;10.10;99.90
17795;DHT22;9021;50.882;4.326;2023-04-24T02:26:55;10.80;99.90
17795;DHT22;9021;50.882;4.326;2023-04-24T02:29:21;13.20;99.90
17795;DHT22;9021;50.882;4.326;2023-04-24T02:31:46;10.40;99.90
17795;DHT22;9021;50.882;4.326;2023-04-24T02:34:12;10.10;99.90
17795;DHT22;9021;50.882;4.326;2023-04-24T02:36:38;10.90;99.90
17795;DHT22;9021;50.882;4.326;2023-04-24T02:39:06;11.00;99.90
17795;DHT22;9021;50.882;4.326;2023-04-24T02:46:24;10.60;99.90
17795;DHT22;9021;50.882;4.326;2023-04-24T02:48:50;10.20;99.90
17795;DHT22;9021;50.882;4.326;2023-04-24T02:51:16;10.30;99.90
17795;DHT22;9021;50.882;4.326;2023-04-24T02:53:41;10.40;99.90
17795;DHT22;9021;50.882;4.326;2023-04-24T02:58:33;10.20;99.90
17795;DHT22;9021;50.882;4.326;2023-04-24T03:00:59;10.50;99.90
17795;DHT22;9021;50.882;4.326;2023-04-24T03:03:26;10.90;99.90
17795;DHT22;9021;50.882;4.326;2023-04-24T03:05:51;10.10;99.90
17795;DHT22;9021;50.882;4.326;2023-04-24T03:08:17;10.40;99.90
17795;DHT22;9021;50.882;4.326;2023-04-24T03:13:09;10.50;99.90
17795;DHT22;9021;50.882;4.326;2023-04-24T03:15:35;10.00;99.90
17795;DHT22;9021;50.882;4.326;2023-04-24T03:20:28;10.20;99.90
17795;DHT22;9021;50.882;4.326;2023-04-24T03:25:19;10.10;99.90
17795;DHT22;9021;50.882;4.326;2023-04-24T03:27:45;10.50;99.90
17795;DHT22;9021;50.882;4.326;2023-04-24T03:32:37;10.10;99.90
17795;DHT22;9021;50.882;4.326;2023-04-24T03:35:06;10.70;99.90
17795;DHT22;9021;50.882;4.326;2023-04-24T03:37:32;9.70;99.90
17795;DHT22;9021;50.882;4.326;2023-04-24T03:44:50;10.00;99.90
17795;DHT22;9021;50.882;4.326;2023-04-24T03:47:15;10.60;99.90
17795;DHT22;9021;50.882;4.326;2023-04-24T03:49:41;10.10;99.90
17795;DHT22;9021;50.882;4.326;2023-04-24T03:52:07;10.70;99.90
17795;DHT22;9021;50.882;4.326;2023-04-24T03:54:32;10.40;99.90
17795;DHT22;9021;50.882;4.326;2023-04-24T03:56:58;10.70;99.90
17795;DHT22;9021;50.882;4.326;2023-04-24T04:01:50;10.70;99.90
17795;DHT22;9021;50.882;4.326;2023-04-24T04:04:15;10.90;99.90
17795;DHT22;9021;50.882;4.326;2023-04-24T04:06:41;10.60;99.90
17795;DHT22;9021;50.882;4.326;2023-04-24T04:09:07;10.60;99.90
17795;DHT22;9021;50.882;4.326;2023-04-24T04:14:01;10.80;99.90
17795;DHT22;9021;50.882;4.326;2023-04-24T04:16:26;10.40;99.90
17795;DHT22;9021;50.882;4.326;2023-04-24T04:18:52;10.80;99.90
17795;DHT22;9021;50.882;4.326;2023-04-24T04:21:17;10.80;99.90
17795;DHT22;9021;50.882;4.326;2023-04-24T04:26:10;10.90;99.90
17795;DHT22;9021;50.882;4.326;2023-04-24T04:28:36;10.90;99.90
17795;DHT22;9021;50.882;4.326;2023-04-24T04:33:29;10.30;99.90
17795;DHT22;9021;50.882;4.326;2023-04-24T04:35:55;10.40;99.90
17795;DHT22;9021;50.882;4.326;2023-04-24T04:38:22;10.60;99.90
17795;DHT22;9021;50.882;4.326;2023-04-24T04:40:48;10.60;99.90
17795;DHT22;9021;50.882;4.326;2023-04-24T04:43:14;10.00;99.90
17795;DHT22;9021;50.882;4.326;2023-04-24T04:45:40;10.50;99.90
17795;DHT22;9021;50.882;4.326;2023-04-24T04:48:08;10.80;99.90
17795;DHT22;9021;50.882;4.326;2023-04-24T04:50:34;10.50;99.90
17795;DHT22;9021;50.882;4.326;2023-04-24T04:55:26;10.60;99.90
17795;DHT22;9021;50.882;4.326;2023-04-24T04:57:52;10.40;99.90
17795;DHT22;9021;50.882;4.326;2023-04-24T05:07:36;10.40;99.90
17795;DHT22;9021;50.882;4.326;2023-04-24T05:10:03;10.40;99.90
17795;DHT22;9021;50.882;4.326;2023-04-24T05:12:28;10.40;99.90
17795;DHT22;9021;50.882;4.326;2023-04-24T05:14:54;10.60;99.90
17795;DHT22;9021;50.882;4.326;2023-04-24T05:17:20;10.80;99.90
17795;DHT22;9021;50.882;4.326;2023-04-24T05:19:45;10.60;99.90
17795;DHT22;9021;50.882;4.326;2023-04-24T05:22:12;9.90;99.90
17795;DHT22;9021;50.882;4.326;2023-04-24T05:24:37;10.40;99.90
17795;DHT22;9021;50.882;4.326;2023-04-24T05:27:03;10.80;99.90
17795;DHT22;9021;50.882;4.326;2023-04-24T05:29:33;10.10;99.90
17795;DHT22;9021;50.882;4.326;2023-04-24T05:31:59;10.30;99.90
17795;DHT22;9021;50.882;4.326;2023-04-24T05:34:25;9.90;99.90
17795;DHT22;9021;50.882;4.326;2023-04-24T05:39:17;10.40;99.90
17795;DHT22;9021;50.882;4.326;2023-04-24T05:41:43;10.40;99.90
17795;DHT22;9021;50.882;4.326;2023-04-24T05:44:09;10.40;99.90
17795;DHT22;9021;50.882;4.326;2023-04-24T05:46:34;10.60;99.90
17795;DHT22;9021;50.882;4.326;2023-04-24T05:51:27;10.30;99.90
17795;DHT22;9021;50.882;4.326;2023-04-24T05:58:46;10.30;99.90
17795;DHT22;9021;50.882;4.326;2023-04-24T06:01:12;10.90;99.90
17795;DHT22;9021;50.882;4.326;2023-04-24T06:03:40;10.10;99.90
17795;DHT22;9021;50.882;4.326;2023-04-24T06:06:06;10.70;99.90
17795;DHT22;9021;50.882;4.326;2023-04-24T06:08:32;10.40;99.90
17795;DHT22;9021;50.882;4.326;2023-04-24T06:10:58;10.30;99.90
17795;DHT22;9021;50.882;4.326;2023-04-24T06:13:24;10.40;99.90
17795;DHT22;9021;50.882;4.326;2023-04-24T06:15:51;10.10;99.90
17795;DHT22;9021;50.882;4.326;2023-04-24T06:18:16;10.50;99.90
17795;DHT22;9021;50.882;4.326;2023-04-24T06:20:42;10.30;99.90
17795;DHT22;9021;50.882;4.326;2023-04-24T06:25:34;10.30;99.90
17795;DHT22;9021;50.882;4.326;2023-04-24T06:28:00;10.30;99.90
17795;DHT22;9021;50.882;4.326;2023-04-24T06:30:27;10.00;99.90
17795;DHT22;9021;50.882;4.326;2023-04-24T06:32:53;10.60;99.90
17795;DHT22;9021;50.882;4.326;2023-04-24T06:37:45;10.20;99.90
17795;DHT22;9021;50.882;4.326;2023-04-24T06:40:11;10.20;99.90
17795;DHT22;9021;50.882;4.326;2023-04-24T06:42:37;10.40;99.90
17795;DHT22;9021;50.882;4.326;2023-04-24T06:49:55;10.30;99.90
17795;DHT22;9021;50.882;4.326;2023-04-24T06:52:21;10.10;99.90
17795;DHT22;9021;50.882;4.326;2023-04-24T06:54:46;10.30;99.90
17795;DHT22;9021;50.882;4.326;2023-04-24T06:59:38;10.50;99.90
17795;DHT22;9021;50.882;4.326;2023-04-24T07:06:56;10.60;99.90
17795;DHT22;9021;50.882;4.326;2023-04-24T07:09:24;10.80;99.90
17795;DHT22;9021;50.882;4.326;2023-04-24T07:11:53;11.10;99.90
17795;DHT22;9021;50.882;4.326;2023-04-24T07:14:20;10.70;99.90
17795;DHT22;9021;50.882;4.326;2023-04-24T07:16:46;10.70;99.90
17795;DHT22;9021;50.882;4.326;2023-04-24T07:19:14;10.70;99.90
17795;DHT22;9021;50.882;4.326;2023-04-24T07:21:40;10.90;99.90
17795;DHT22;9021;50.882;4.326;2023-04-24T07:24:11;11.50;99.90
17795;DHT22;9021;50.882;4.326;2023-04-24T07:26:39;10.90;99.90
17795;DHT22;9021;50.882;4.326;2023-04-24T07:29:06;11.90;99.90
17795;DHT22;9021;50.882;4.326;2023-04-24T07:31:32;11.90;99.90
17795;DHT22;9021;50.882;4.326;2023-04-24T07:33:57;12.00;99.90
17795;DHT22;9021;50.882;4.326;2023-04-24T07:38:51;12.50;99.90
17795;DHT22;9021;50.882;4.326;2023-04-24T07:41:17;12.00;99.90
17795;DHT22;9021;50.882;4.326;2023-04-24T07:43:43;12.30;99.90
17795;DHT22;9021;50.882;4.326;2023-04-24T07:46:09;12.60;99.90
17795;DHT22;9021;50.882;4.326;2023-04-24T07:48:35;12.40;99.90
17795;DHT22;9021;50.882;4.326;2023-04-24T07:51:01;12.10;99.90
17795;DHT22;9021;50.882;4.326;2023-04-24T07:53:27;11.70;99.90
17795;DHT22;9021;50.882;4.326;2023-04-24T07:55:55;12.10;99.90
17795;DHT22;9021;50.882;4.326;2023-04-24T07:58:21;12.10;99.90
17795;DHT22;9021;50.882;4.326;2023-04-24T08:00:46;11.60;99.90
17795;DHT22;9021;50.882;4.326;2023-04-24T08:03:12;12.50;99.90
17795;DHT22;9021;50.882;4.326;2023-04-24T08:05:38;12.20;99.90
17795;DHT22;9021;50.882;4.326;2023-04-24T08:08:04;12.30;99.90
17795;DHT22;9021;50.882;4.326;2023-04-24T08:10:30;11.80;99.90
17795;DHT22;9021;50.882;4.326;2023-04-24T08:12:55;11.60;99.90
17795;DHT22;9021;50.882;4.326;2023-04-24T08:17:47;12.10;99.90
17795;DHT22;9021;50.882;4.326;2023-04-24T08:20:13;11.70;99.90
17795;DHT22;9021;50.882;4.326;2023-04-24T08:22:42;12.10;99.90
17795;DHT22;9021;50.882;4.326;2023-04-24T08:25:09;12.10;99.90
17795;DHT22;9021;50.882;4.326;2023-04-24T08:27:34;12.10;99.90
17795;DHT22;9021;50.882;4.326;2023-04-24T08:30:03;12.10;99.90
17795;DHT22;9021;50.882;4.326;2023-04-24T08:32:28;12.00;99.90
17795;DHT22;9021;50.882;4.326;2023-04-24T08:34:55;12.00;99.90
17795;DHT22;9021;50.882;4.326;2023-04-24T08:37:22;12.10;99.90
17795;DHT22;9021;50.882;4.326;2023-04-24T08:39:49;11.70;99.90
17795;DHT22;9021;50.882;4.326;2023-04-24T08:42:16;12.40;99.90
17795;DHT22;9021;50.882;4.326;2023-04-24T08:44:42;11.70;99.90
17795;DHT22;9021;50.882;4.326;2023-04-24T08:47:08;12.50;99.90
17795;DHT22;9021;50.882;4.326;2023-04-24T08:49:35;12.20;99.90
17795;DHT22;9021;50.882;4.326;2023-04-24T08:52:02;12.90;99.90
17795;DHT22;9021;50.882;4.326;2023-04-24T08:54:28;9.40;99.90
17795;DHT22;9021;50.882;4.326;2023-04-24T08:57:00;13.40;99.90
17795;DHT22;9021;50.882;4.326;2023-04-24T08:59:32;12.40;99.90
17795;DHT22;9021;50.882;4.326;2023-04-24T09:01:59;12.50;99.90
17795;DHT22;9021;50.882;4.326;2023-04-24T09:04:25;12.60;99.90
17795;DHT22;9021;50.882;4.326;2023-04-24T09:06:56;13.10;99.90
17795;DHT22;9021;50.882;4.326;2023-04-24T09:09:23;13.20;99.90
17795;DHT22;9021;50.882;4.326;2023-04-24T09:11:50;13.50;99.90
17795;DHT22;9021;50.882;4.326;2023-04-24T09:14:17;13.90;99.90
17795;DHT22;9021;50.882;4.326;2023-04-24T09:16:43;13.20;99.90
17795;DHT22;9021;50.882;4.326;2023-04-24T09:19:09;12.90;99.90
17795;DHT22;9021;50.882;4.326;2023-04-24T09:21:35;13.40;99.90
17795;DHT22;9021;50.882;4.326;2023-04-24T09:24:02;14.00;99.90
17795;DHT22;9021;50.882;4.326;2023-04-24T09:26:34;13.50;99.90
17795;DHT22;9021;50.882;4.326;2023-04-24T09:29:00;13.70;99.90
17795;DHT22;9021;50.882;4.326;2023-04-24T09:31:27;13.50;99.90
17795;DHT22;9021;50.882;4.326;2023-04-24T09:34:21;13.40;99.90
17795;DHT22;9021;50.882;4.326;2023-04-24T09:37:03;13.30;99.90
17795;DHT22;9021;50.882;4.326;2023-04-24T09:39:28;12.80;99.90
17795;DHT22;9021;50.882;4.326;2023-04-24T09:41:55;13.60;99.90
17795;DHT22;9021;50.882;4.326;2023-04-24T09:44:27;13.60;99.90
17795;DHT22;9021;50.882;4.326;2023-04-24T09:46:55;13.70;99.90
17795;DHT22;9021;50.882;4.326;2023-04-24T09:49:29;14.00;99.90
17795;DHT22;9021;50.882;4.326;2023-04-24T09:52:09;13.90;99.90
17795;DHT22;9021;50.882;4.326;2023-04-24T09:54:36;13.40;99.90
17795;DHT22;9021;50.882;4.326;2023-04-24T09:57:03;14.10;99.90
17795;DHT22;9021;50.882;4.326;2023-04-24T09:59:32;14.10;99.90
17795;DHT22;9021;50.882;4.326;2023-04-24T10:01:58;13.80;99.90
17795;DHT22;9021;50.882;4.326;2023-04-24T10:04:26;13.70;99.90
17795;DHT22;9021;50.882;4.326;2023-04-24T10:06:54;14.40;99.90
17795;DHT22;9021;50.882;4.326;2023-04-24T10:09:22;13.80;99.90
17795;DHT22;9021;50.882;4.326;2023-04-24T10:11:51;14.20;99.90
17795;DHT22;9021;50.882;4.326;2023-04-24T10:14:18;14.40;99.90
17795;DHT22;9021;50.882;4.326;2023-04-24T10:16:45;13.90;99.90
17795;DHT22;9021;50.882;4.326;2023-04-24T10:19:17;13.80;99.90
17795;DHT22;9021;50.882;4.326;2023-04-24T10:21:51;13.90;99.90
17795;DHT22;9021;50.882;4.326;2023-04-24T10:24:18;13.30;99.90
17795;DHT22;9021;50.882;4.326;2023-04-24T10:26:47;14.00;99.90
17795;DHT22;9021;50.882;4.326;2023-04-24T10:29:18;13.90;99.90
17795;DHT22;9021;50.882;4.326;2023-04-24T10:31:47;14.20;99.90
17795;DHT22;9021;50.882;4.326;2023-04-24T10:34:15;15.10;99.90
17795;DHT22;9021;50.882;4.326;2023-04-24T10:36:45;15.30;99.90
17795;DHT22;9021;50.882;4.326;2023-04-24T10:39:14;15.00;98.90
17795;DHT22;9021;50.882;4.326;2023-04-24T10:41:41;14.50;99.90
17795;DHT22;9021;50.882;4.326;2023-04-24T10:44:14;14.80;99.90
17795;DHT22;9021;50.882;4.326;2023-04-24T10:46:45;14.60;99.30
17795;DHT22;9021;50.882;4.326;2023-04-24T10:49:10;14.10;99.90
17795;DHT22;9021;50.882;4.326;2023-04-24T10:51:53;14.60;99.90
17795;DHT22;9021;50.882;4.326;2023-04-24T10:54:44;14.40;99.20
17795;DHT22;9021;50.882;4.326;2023-04-24T10:59:45;14.60;99.90
17795;DHT22;9021;50.882;4.326;2023-04-24T11:02:10;14.70;99.60
17795;DHT22;9021;50.882;4.326;2023-04-24T11:04:39;15.60;99.90
17795;DHT22;9021;50.882;4.326;2023-04-24T11:09:32;15.10;99.90
17795;DHT22;9021;50.882;4.326;2023-04-24T11:12:08;15.50;99.90
17795;DHT22;9021;50.882;4.326;2023-04-24T11:15:05;16.90;99.40
17795;DHT22;9021;50.882;4.326;2023-04-24T11:17:37;16.80;96.90
17795;DHT22;9021;50.882;4.326;2023-04-24T11:20:10;16.70;98.20
17795;DHT22;9021;50.882;4.326;2023-04-24T11:22:40;16.00;98.30
17795;DHT22;9021;50.882;4.326;2023-04-24T11:25:06;15.60;98.40
17795;DHT22;9021;50.882;4.326;2023-04-24T11:27:39;15.10;98.40
17795;DHT22;9021;50.882;4.326;2023-04-24T11:30:07;15.60;96.60
17795;DHT22;9021;50.882;4.326;2023-04-24T11:35:09;15.70;99.00
17795;DHT22;9021;50.882;4.326;2023-04-24T11:37:39;16.40;98.10
17795;DHT22;9021;50.882;4.326;2023-04-24T11:40:07;16.70;99.10
17795;DHT22;9021;50.882;4.326;2023-04-24T11:42:37;16.70;97.30
17795;DHT22;9021;50.882;4.326;2023-04-24T11:45:11;17.00;98.10
17795;DHT22;9021;50.882;4.326;2023-04-24T11:47:38;16.50;94.90
17795;DHT22;9021;50.882;4.326;2023-04-24T11:50:07;16.20;97.10
17795;DHT22;9021;50.882;4.326;2023-04-24T11:52:36;15.80;98.30
17795;DHT22;9021;50.882;4.326;2023-04-24T11:55:02;15.30;99.20
17795;DHT22;9021;50.882;4.326;2023-04-24T11:57:29;15.80;99.90
17795;DHT22;9021;50.882;4.326;2023-04-24T12:00:00;15.60;98.10
17795;DHT22;9021;50.882;4.326;2023-04-24T12:02:27;15.60;98.70
17795;DHT22;9021;50.882;4.326;2023-04-24T12:04:53;15.70;96.40
17795;DHT22;9021;50.882;4.326;2023-04-24T12:07:19;16.40;95.30
17795;DHT22;9021;50.882;4.326;2023-04-24T12:09:56;16.50;97.20
17795;DHT22;9021;50.882;4.326;2023-04-24T12:12:25;17.60;95.80
17795;DHT22;9021;50.882;4.326;2023-04-24T12:14:55;17.40;93.80
17795;DHT22;9021;50.882;4.326;2023-04-24T12:17:32;19.30;95.00
17795;DHT22;9021;50.882;4.326;2023-04-24T12:20:03;18.60;91.60
17795;DHT22;9021;50.882;4.326;2023-04-24T12:25:10;20.40;89.90
17795;DHT22;9021;50.882;4.326;2023-04-24T12:27:36;20.80;87.60
17795;DHT22;9021;50.882;4.326;2023-04-24T12:30:04;20.50;91.90
17795;DHT22;9021;50.882;4.326;2023-04-24T12:32:31;20.80;88.10
17795;DHT22;9021;50.882;4.326;2023-04-24T12:34:56;20.60;89.30
17795;DHT22;9021;50.882;4.326;2023-04-24T12:37:24;20.10;88.30
17795;DHT22;9021;50.882;4.326;2023-04-24T12:42:31;21.40;91.60
17795;DHT22;9021;50.882;4.326;2023-04-24T12:44:58;20.40;90.30
17795;DHT22;9021;50.882;4.326;2023-04-24T12:47:25;20.90;88.90
17795;DHT22;9021;50.882;4.326;2023-04-24T12:49:51;21.90;90.00
17795;DHT22;9021;50.882;4.326;2023-04-24T12:52:18;20.40;90.00
17795;DHT22;9021;50.882;4.326;2023-04-24T12:54:45;19.50;90.60
17795;DHT22;9021;50.882;4.326;2023-04-24T12:57:11;18.70;90.50
17795;DHT22;9021;50.882;4.326;2023-04-24T12:59:37;19.00;91.40
17795;DHT22;9021;50.882;4.326;2023-04-24T13:02:04;18.20;92.20
17795;DHT22;9021;50.882;4.326;2023-04-24T13:04:30;18.50;90.40
17795;DHT22;9021;50.882;4.326;2023-04-24T13:06:56;18.50;90.00
17795;DHT22;9021;50.882;4.326;2023-04-24T13:09:21;18.00;92.90
17795;DHT22;9021;50.882;4.326;2023-04-24T13:11:47;18.10;92.60
17795;DHT22;9021;50.882;4.326;2023-04-24T13:14:13;18.00;91.90
17795;DHT22;9021;50.882;4.326;2023-04-24T13:16:38;17.90;91.60
17795;DHT22;9021;50.882;4.326;2023-04-24T13:21:30;18.50;92.80
17795;DHT22;9021;50.882;4.326;2023-04-24T13:23:56;18.00;92.30
17795;DHT22;9021;50.882;4.326;2023-04-24T13:26:21;17.70;91.70
17795;DHT22;9021;50.882;4.326;2023-04-24T13:28:47;17.90;92.20
17795;DHT22;9021;50.882;4.326;2023-04-24T13:31:12;17.50;92.90
17795;DHT22;9021;50.882;4.326;2023-04-24T13:33:39;17.30;90.10
17795;DHT22;9021;50.882;4.326;2023-04-24T13:38:31;16.70;93.70
17795;DHT22;9021;50.882;4.326;2023-04-24T13:40:57;17.00;92.70
17795;DHT22;9021;50.882;4.326;2023-04-24T13:45:49;16.60;92.10
17795;DHT22;9021;50.882;4.326;2023-04-24T13:48:14;16.60;92.50
17795;DHT22;9021;50.882;4.326;2023-04-24T13:50:41;16.40;92.10
17795;DHT22;9021;50.882;4.326;2023-04-24T13:53:07;16.90;90.10
17795;DHT22;9021;50.882;4.326;2023-04-24T13:55:36;17.00;92.10
17795;DHT22;9021;50.882;4.326;2023-04-24T13:58:02;16.90;92.30
17795;DHT22;9021;50.882;4.326;2023-04-24T14:00:28;17.50;91.30
17795;DHT22;9021;50.882;4.326;2023-04-24T14:02:53;17.30;87.60
17795;DHT22;9021;50.882;4.326;2023-04-24T14:05:19;17.20;88.40
17795;DHT22;9021;50.882;4.326;2023-04-24T14:07:46;16.90;91.20
17795;DHT22;9021;50.882;4.326;2023-04-24T14:10:12;16.70;91.50
17795;DHT22;9021;50.882;4.326;2023-04-24T14:12:37;16.80;92.80
17795;DHT22;9021;50.882;4.326;2023-04-24T14:15:04;17.30;92.30
17795;DHT22;9021;50.882;4.326;2023-04-24T14:17:30;17.40;92.60
17795;DHT22;9021;50.882;4.326;2023-04-24T14:19:56;17.60;92.40
17795;DHT22;9021;50.882;4.326;2023-04-24T14:22:22;16.80;92.10
17795;DHT22;9021;50.882;4.326;2023-04-24T14:24:54;16.70;92.10
17795;DHT22;9021;50.882;4.326;2023-04-24T14:27:20;16.00;92.30
17795;DHT22;9021;50.882;4.326;2023-04-24T14:29:45;16.70;92.50
17795;DHT22;9021;50.882;4.326;2023-04-24T14:32:11;16.00;94.40
17795;DHT22;9021;50.882;4.326;2023-04-24T14:37:06;15.90;93.40
17795;DHT22;9021;50.882;4.326;2023-04-24T14:39:31;16.10;93.40
17795;DHT22;9021;50.882;4.326;2023-04-24T14:41:57;16.20;91.70
17795;DHT22;9021;50.882;4.326;2023-04-24T14:44:28;15.60;92.00
17795;DHT22;9021;50.882;4.326;2023-04-24T14:47:01;16.00;94.00
17795;DHT22;9021;50.882;4.326;2023-04-24T14:49:30;15.60;93.10
17795;DHT22;9021;50.882;4.326;2023-04-24T14:52:05;15.60;93.60
17795;DHT22;9021;50.882;4.326;2023-04-24T14:54:33;15.90;93.20
17795;DHT22;9021;50.882;4.326;2023-04-24T14:56:58;15.70;93.30
17795;DHT22;9021;50.882;4.326;2023-04-24T14:59:27;15.60;93.50
17795;DHT22;9021;50.882;4.326;2023-04-24T15:02:03;16.00;94.00
17795;DHT22;9021;50.882;4.326;2023-04-24T15:04:32;15.70;94.00
17795;DHT22;9021;50.882;4.326;2023-04-24T15:06:57;15.70;94.10
17795;DHT22;9021;50.882;4.326;2023-04-24T15:09:23;15.40;94.00
17795;DHT22;9021;50.882;4.326;2023-04-24T15:11:50;15.70;91.90
17795;DHT22;9021;50.882;4.326;2023-04-24T15:14:17;15.50;91.30
17795;DHT22;9021;50.882;4.326;2023-04-24T15:16:43;15.70;93.40
17795;DHT22;9021;50.882;4.326;2023-04-24T15:19:09;15.20;93.00
17795;DHT22;9021;50.882;4.326;2023-04-24T15:21:36;16.00;93.80
17795;DHT22;9021;50.882;4.326;2023-04-24T15:24:02;14.80;92.50
17795;DHT22;9021;50.882;4.326;2023-04-24T15:26:27;15.40;93.40
17795;DHT22;9021;50.882;4.326;2023-04-24T15:28:53;15.40;94.30
17795;DHT22;9021;50.882;4.326;2023-04-24T15:31:19;16.00;93.60
17795;DHT22;9021;50.882;4.326;2023-04-24T15:33:45;16.10;94.80
17795;DHT22;9021;50.882;4.326;2023-04-24T15:36:11;15.30;94.10
17795;DHT22;9021;50.882;4.326;2023-04-24T15:38:37;15.40;91.30
17795;DHT22;9021;50.882;4.326;2023-04-24T15:41:03;15.50;91.50
17795;DHT22;9021;50.882;4.326;2023-04-24T15:43:29;14.80;93.10
17795;DHT22;9021;50.882;4.326;2023-04-24T15:45:56;15.40;93.50
17795;DHT22;9021;50.882;4.326;2023-04-24T15:48:22;15.20;91.80
17795;DHT22;9021;50.882;4.326;2023-04-24T15:50:48;14.90;94.20
17795;DHT22;9021;50.882;4.326;2023-04-24T15:53:14;14.90;93.80
17795;DHT22;9021;50.882;4.326;2023-04-24T15:55:46;15.00;94.60
17795;DHT22;9021;50.882;4.326;2023-04-24T15:58:12;15.20;92.50
17795;DHT22;9021;50.882;4.326;2023-04-24T16:00:38;15.70;94.40
17795;DHT22;9021;50.882;4.326;2023-04-24T16:03:04;14.70;95.10
17795;DHT22;9021;50.882;4.326;2023-04-24T16:05:29;15.20;94.80
17795;DHT22;9021;50.882;4.326;2023-04-24T16:07:55;14.90;94.80
17795;DHT22;9021;50.882;4.326;2023-04-24T16:15:14;14.90;94.90
17795;DHT22;9021;50.882;4.326;2023-04-24T16:17:43;15.30;94.60
17795;DHT22;9021;50.882;4.326;2023-04-24T16:20:14;15.10;94.90
17795;DHT22;9021;50.882;4.326;2023-04-24T16:22:40;15.20;95.40
17795;DHT22;9021;50.882;4.326;2023-04-24T16:25:06;15.40;92.90
17795;DHT22;9021;50.882;4.326;2023-04-24T16:27:36;15.30;95.30
17795;DHT22;9021;50.882;4.326;2023-04-24T16:30:02;14.30;94.00
17795;DHT22;9021;50.882;4.326;2023-04-24T16:32:28;15.20;94.50
17795;DHT22;9021;50.882;4.326;2023-04-24T16:34:54;14.90;92.60
17795;DHT22;9021;50.882;4.326;2023-04-24T16:37:19;15.20;94.20
17795;DHT22;9021;50.882;4.326;2023-04-24T16:39:45;15.70;95.00
17795;DHT22;9021;50.882;4.326;2023-04-24T16:42:12;15.00;95.20
17795;DHT22;9021;50.882;4.326;2023-04-24T16:44:38;15.60;95.20
17795;DHT22;9021;50.882;4.326;2023-04-24T16:47:11;15.50;95.70
17795;DHT22;9021;50.882;4.326;2023-04-24T16:49:44;15.00;94.80
17795;DHT22;9021;50.882;4.326;2023-04-24T16:52:10;15.30;93.00
17795;DHT22;9021;50.882;4.326;2023-04-24T16:54:36;15.10;94.80
17795;DHT22;9021;50.882;4.326;2023-04-24T16:57:03;15.10;95.30
17795;DHT22;9021;50.882;4.326;2023-04-24T16:59:30;14.90;94.80
17795;DHT22;9021;50.882;4.326;2023-04-24T17:01:58;14.90;94.50
17795;DHT22;9021;50.882;4.326;2023-04-24T17:04:24;15.00;92.70
17795;DHT22;9021;50.882;4.326;2023-04-24T17:09:16;15.20;93.50
17795;DHT22;9021;50.882;4.326;2023-04-24T17:11:41;14.20;94.10
17795;DHT22;9021;50.882;4.326;2023-04-24T17:14:07;14.60;93.60
17795;DHT22;9021;50.882;4.326;2023-04-24T17:16:33;13.90;95.00
17795;DHT22;9021;50.882;4.326;2023-04-24T17:18:59;14.70;94.10
17795;DHT22;9021;50.882;4.326;2023-04-24T17:21:25;14.30;92.80
17795;DHT22;9021;50.882;4.326;2023-04-24T17:23:52;14.20;92.80
17795;DHT22;9021;50.882;4.326;2023-04-24T17:26:21;14.20;92.90
17795;DHT22;9021;50.882;4.326;2023-04-24T17:28:46;14.10;92.70
17795;DHT22;9021;50.882;4.326;2023-04-24T17:31:12;14.00;95.40
17795;DHT22;9021;50.882;4.326;2023-04-24T17:33:38;14.30;96.50
17795;DHT22;9021;50.882;4.326;2023-04-24T17:36:04;14.00;93.90
17795;DHT22;9021;50.882;4.326;2023-04-24T17:38:31;14.00;96.60
17795;DHT22;9021;50.882;4.326;2023-04-24T17:40:57;13.90;96.20
17795;DHT22;9021;50.882;4.326;2023-04-24T17:43:24;13.90;95.90
17795;DHT22;9021;50.882;4.326;2023-04-24T17:45:52;14.20;95.60
17795;DHT22;9021;50.882;4.326;2023-04-24T17:48:20;13.70;95.50
17795;DHT22;9021;50.882;4.326;2023-04-24T17:50:47;13.90;96.10
17795;DHT22;9021;50.882;4.326;2023-04-24T17:53:13;13.20;95.50
17795;DHT22;9021;50.882;4.326;2023-04-24T17:55:39;13.80;94.10
17795;DHT22;9021;50.882;4.326;2023-04-24T17:58:05;13.80;94.50